sensor_id;sensor_type;location;lat;lon;timestamp;pressure;altitude;pressure_sealevel;temperature;humidity
54270;BME280;40181;51.560;13.000;2023-01-28T00:02:12;101686.88;;;0.88;100.00
54270;BME280;40181;51.560;13.000;2023-01-28T00:04:43;101683.63;;;0.79;100.00
54270;BME280;40181;51.560;13.000;2023-01-28T00:07:12;101686.09;;;0.89;100.00
54270;BME280;40181;51.560;13.000;2023-01-28T00:09:41;101684.75;;;0.82;100.00
54270;BME280;40181;51.560;13.000;2023-01-28T00:12:10;101686.09;;;0.89;100.00
54270;BME280;40181;51.560;13.000;2023-01-28T00:14:39;101681.50;;;0.85;100.00
54270;BME280;40181;51.560;13.000;2023-01-28T00:17:10;101692.53;;;0.82;100.00
54270;BME280;40181;51.560;13.000;2023-01-28T00:19:39;101688.25;;;0.83;100.00
54270;BME280;40181;51.560;13.000;2023-01-28T00:22:11;101693.31;;;0.81;100.00
54270;BME280;40181;51.560;13.000;2023-01-28T00:24:40;101694.97;;;0.93;100.00
54270;BME280;40181;51.560;13.000;2023-01-28T00:27:09;101700.59;;;0.87;99.98
54270;BME280;40181;51.560;13.000;2023-01-28T00:29:38;101703.53;;;0.92;100.00
54270;BME280;40181;51.560;13.000;2023-01-28T00:32:07;101700.75;;;0.77;100.00
54270;BME280;40181;51.560;13.000;2023-01-28T00:34:36;101699.16;;;0.79;100.00
54270;BME280;40181;51.560;13.000;2023-01-28T00:37:08;101699.06;;;0.77;99.56
54270;BME280;40181;51.560;13.000;2023-01-28T00:39:37;101699.72;;;0.87;99.66
54270;BME280;40181;51.560;13.000;2023-01-28T00:42:06;101702.31;;;0.87;99.94
54270;BME280;40181;51.560;13.000;2023-01-28T00:44:35;101695.22;;;0.84;99.54
54270;BME280;40181;51.560;13.000;2023-01-28T00:47:04;101698.16;;;0.65;99.80
54270;BME280;40181;51.560;13.000;2023-01-28T00:49:33;101692.22;;;0.66;99.25
54270;BME280;40181;51.560;13.000;2023-01-28T00:52:02;101701.75;;;0.79;99.54
54270;BME280;40181;51.560;13.000;2023-01-28T00:54:34;101717.59;;;0.72;99.89
54270;BME280;40181;51.560;13.000;2023-01-28T00:57:03;101718.06;;;0.66;99.78
54270;BME280;40181;51.560;13.000;2023-01-28T00:59:32;101711.44;;;0.69;100.00
54270;BME280;40181;51.560;13.000;2023-01-28T01:02:01;101718.84;;;0.89;99.71
54270;BME280;40181;51.560;13.000;2023-01-28T01:04:36;101716.94;;;0.62;99.85
54270;BME280;40181;51.560;13.000;2023-01-28T01:07:05;101711.22;;;0.66;100.00
54270;BME280;40181;51.560;13.000;2023-01-28T01:09:37;101717.75;;;0.61;100.00
54270;BME280;40181;51.560;13.000;2023-01-28T01:12:06;101716.66;;;0.46;100.00
54270;BME280;40181;51.560;13.000;2023-01-28T01:14:35;101712.34;;;0.58;100.00
54270;BME280;40181;51.560;13.000;2023-01-28T01:17:04;101711.22;;;0.54;100.00
54270;BME280;40181;51.560;13.000;2023-01-28T01:19:33;101717.41;;;0.57;100.00
54270;BME280;40181;51.560;13.000;2023-01-28T01:22:03;101724.50;;;0.59;100.00
54270;BME280;40181;51.560;13.000;2023-01-28T01:24:32;101713.28;;;0.59;100.00
54270;BME280;40181;51.560;13.000;2023-01-28T01:27:04;101721.56;;;0.54;100.00
54270;BME280;40181;51.560;13.000;2023-01-28T01:29:33;101721.81;;;0.46;100.00
54270;BME280;40181;51.560;13.000;2023-01-28T01:32:02;101727.09;;;0.59;100.00
54270;BME280;40181;51.560;13.000;2023-01-28T01:34:32;101725.28;;;0.58;99.97
54270;BME280;40181;51.560;13.000;2023-01-28T01:37:01;101718.53;;;0.60;99.98
54270;BME280;40181;51.560;13.000;2023-01-28T01:39:32;101735.84;;;0.61;99.56
54270;BME280;40181;51.560;13.000;2023-01-28T01:42:04;101724.38;;;0.58;99.13
54270;BME280;40181;51.560;13.000;2023-01-28T01:44:57;101729.47;;;0.56;99.66
54270;BME280;40181;51.560;13.000;2023-01-28T01:47:32;101732.72;;;0.53;99.55
54270;BME280;40181;51.560;13.000;2023-01-28T01:50:13;101730.25;;;0.55;99.37
54270;BME280;40181;51.560;13.000;2023-01-28T01:52:50;101731.47;;;0.36;99.68
54270;BME280;40181;51.560;13.000;2023-01-28T01:55:24;101735.16;;;0.40;99.82
54270;BME280;40181;51.560;13.000;2023-01-28T01:58:03;101728.19;;;0.39;99.86
54270;BME280;40181;51.560;13.000;2023-01-28T02:00:38;101726.31;;;0.36;99.68
54270;BME280;40181;51.560;13.000;2023-01-28T02:03:08;101729.66;;;0.35;98.88
54270;BME280;40181;51.560;13.000;2023-01-28T02:05:38;101730.78;;;0.27;99.78
54270;BME280;40181;51.560;13.000;2023-01-28T02:08:07;101736.31;;;0.32;99.24
54270;BME280;40181;51.560;13.000;2023-01-28T02:10:51;101743.97;;;0.42;98.57
54270;BME280;40181;51.560;13.000;2023-01-28T02:13:29;101750.25;;;0.46;97.65
54270;BME280;40181;51.560;13.000;2023-01-28T02:16:01;101754.75;;;0.36;97.95
54270;BME280;40181;51.560;13.000;2023-01-28T02:18:31;101752.56;;;0.31;98.12
54270;BME280;40181;51.560;13.000;2023-01-28T02:24:22;101753.84;;;0.36;97.64
54270;BME280;40181;51.560;13.000;2023-01-28T02:27:18;101742.81;;;0.26;97.28
54270;BME280;40181;51.560;13.000;2023-01-28T02:30:02;101742.25;;;0.31;96.96
54270;BME280;40181;51.560;13.000;2023-01-28T02:32:39;101747.66;;;0.34;96.89
54270;BME280;40181;51.560;13.000;2023-01-28T02:35:16;101756.63;;;0.15;97.18
54270;BME280;40181;51.560;13.000;2023-01-28T02:37:52;101758.59;;;0.07;97.20
54270;BME280;40181;51.560;13.000;2023-01-28T02:40:28;101752.59;;;0.19;97.22
54270;BME280;40181;51.560;13.000;2023-01-28T02:43:29;101748.09;;;0.16;97.26
54270;BME280;40181;51.560;13.000;2023-01-28T02:46:12;101750.66;;;0.16;97.02
54270;BME280;40181;51.560;13.000;2023-01-28T02:48:57;101743.69;;;0.15;96.84
54270;BME280;40181;51.560;13.000;2023-01-28T02:51:34;101754.28;;;0.30;97.20
54270;BME280;40181;51.560;13.000;2023-01-28T02:54:13;101750.75;;;0.18;96.93
54270;BME280;40181;51.560;13.000;2023-01-28T02:56:52;101756.19;;;0.21;96.41
54270;BME280;40181;51.560;13.000;2023-01-28T02:59:28;101756.28;;;0.10;96.59
54270;BME280;40181;51.560;13.000;2023-01-28T03:02:10;101759.41;;;0.06;96.76
54270;BME280;40181;51.560;13.000;2023-01-28T03:04:48;101752.00;;;0.11;96.64
54270;BME280;40181;51.560;13.000;2023-01-28T03:07:22;101752.66;;;0.08;96.45
54270;BME280;40181;51.560;13.000;2023-01-28T03:09:52;101754.91;;;0.16;95.79
54270;BME280;40181;51.560;13.000;2023-01-28T03:12:24;101749.41;;;0.11;95.74
54270;BME280;40181;51.560;13.000;2023-01-28T03:15:09;101750.97;;;0.09;95.64
54270;BME280;40181;51.560;13.000;2023-01-28T03:18:00;101761.22;;;0.19;95.35
54270;BME280;40181;51.560;13.000;2023-01-28T03:20:47;101763.69;;;0.18;95.07
54270;BME280;40181;51.560;13.000;2023-01-28T03:23:36;101764.69;;;0.08;95.64
54270;BME280;40181;51.560;13.000;2023-01-28T03:26:21;101767.06;;;0.05;95.10
54270;BME280;40181;51.560;13.000;2023-01-28T03:29:07;101775.91;;;0.08;94.43
54270;BME280;40181;51.560;13.000;2023-01-28T03:31:50;101766.63;;;0.10;94.77
54270;BME280;40181;51.560;13.000;2023-01-28T03:34:36;101773.00;;;0.16;94.13
54270;BME280;40181;51.560;13.000;2023-01-28T03:37:18;101771.19;;;0.03;94.56
54270;BME280;40181;51.560;13.000;2023-01-28T03:39:47;101776.25;;;0.01;94.27
54270;BME280;40181;51.560;13.000;2023-01-28T03:42:16;101779.97;;;0.05;93.78
54270;BME280;40181;51.560;13.000;2023-01-28T03:44:45;101781.25;;;-0.12;94.00
54270;BME280;40181;51.560;13.000;2023-01-28T03:47:22;101784.97;;;-0.09;95.11
54270;BME280;40181;51.560;13.000;2023-01-28T03:49:56;101782.16;;;-0.12;94.96
54270;BME280;40181;51.560;13.000;2023-01-28T03:52:28;101784.50;;;-0.15;94.95
54270;BME280;40181;51.560;13.000;2023-01-28T03:54:58;101788.88;;;-0.14;94.63
54270;BME280;40181;51.560;13.000;2023-01-28T03:57:37;101782.97;;;-0.13;94.13
54270;BME280;40181;51.560;13.000;2023-01-28T04:00:10;101783.25;;;-0.20;94.22
54270;BME280;40181;51.560;13.000;2023-01-28T04:02:41;101782.34;;;-0.21;94.38
54270;BME280;40181;51.560;13.000;2023-01-28T04:05:13;101789.31;;;-0.20;94.36
54270;BME280;40181;51.560;13.000;2023-01-28T04:07:44;101788.38;;;-0.32;93.67
54270;BME280;40181;51.560;13.000;2023-01-28T04:10:16;101794.31;;;-0.33;94.08
54270;BME280;40181;51.560;13.000;2023-01-28T04:12:45;101793.53;;;-0.32;94.17
54270;BME280;40181;51.560;13.000;2023-01-28T04:15:18;101792.25;;;-0.37;94.37
54270;BME280;40181;51.560;13.000;2023-01-28T04:17:48;101790.66;;;-0.25;93.96
54270;BME280;40181;51.560;13.000;2023-01-28T04:20:19;101792.22;;;-0.27;94.21
54270;BME280;40181;51.560;13.000;2023-01-28T04:22:48;101798.78;;;-0.43;94.43
54270;BME280;40181;51.560;13.000;2023-01-28T04:25:17;101796.03;;;-0.22;94.32
54270;BME280;40181;51.560;13.000;2023-01-28T04:27:46;101806.69;;;-0.29;93.65
54270;BME280;40181;51.560;13.000;2023-01-28T04:30:16;101804.09;;;-0.29;93.29
54270;BME280;40181;51.560;13.000;2023-01-28T04:32:46;101801.41;;;-0.31;92.93
54270;BME280;40181;51.560;13.000;2023-01-28T04:35:16;101801.88;;;-0.24;92.54
54270;BME280;40181;51.560;13.000;2023-01-28T04:37:47;101804.88;;;-0.30;93.45
54270;BME280;40181;51.560;13.000;2023-01-28T04:40:16;101809.63;;;-0.47;93.47
54270;BME280;40181;51.560;13.000;2023-01-28T04:42:52;101810.84;;;-0.31;93.23
54270;BME280;40181;51.560;13.000;2023-01-28T04:45:22;101805.66;;;-0.31;92.73
54270;BME280;40181;51.560;13.000;2023-01-28T04:47:51;101796.34;;;-0.29;93.23
54270;BME280;40181;51.560;13.000;2023-01-28T04:50:23;101799.28;;;-0.47;93.69
54270;BME280;40181;51.560;13.000;2023-01-28T04:52:52;101794.31;;;-0.33;93.58
54270;BME280;40181;51.560;13.000;2023-01-28T04:55:21;101805.59;;;-0.43;93.17
54270;BME280;40181;51.560;13.000;2023-01-28T04:57:50;101810.53;;;-0.46;93.11
54270;BME280;40181;51.560;13.000;2023-01-28T05:00:20;101809.31;;;-0.39;92.78
54270;BME280;40181;51.560;13.000;2023-01-28T05:02:49;101803.94;;;-0.43;93.53
54270;BME280;40181;51.560;13.000;2023-01-28T05:05:18;101809.47;;;-0.38;92.39
54270;BME280;40181;51.560;13.000;2023-01-28T05:07:53;101815.34;;;-0.29;91.90
54270;BME280;40181;51.560;13.000;2023-01-28T05:10:26;101812.81;;;-0.39;92.67
54270;BME280;40181;51.560;13.000;2023-01-28T05:12:55;101814.50;;;-0.39;93.17
54270;BME280;40181;51.560;13.000;2023-01-28T05:15:24;101833.84;;;-0.34;92.45
54270;BME280;40181;51.560;13.000;2023-01-28T05:17:54;101818.09;;;-0.37;93.04
54270;BME280;40181;51.560;13.000;2023-01-28T05:20:24;101829.91;;;-0.29;92.17
54270;BME280;40181;51.560;13.000;2023-01-28T05:22:56;101824.88;;;-0.28;92.40
54270;BME280;40181;51.560;13.000;2023-01-28T05:25:25;101828.69;;;-0.34;92.39
54270;BME280;40181;51.560;13.000;2023-01-28T05:27:54;101843.38;;;-0.33;92.83
54270;BME280;40181;51.560;13.000;2023-01-28T05:30:23;101833.47;;;-0.39;92.58
54270;BME280;40181;51.560;13.000;2023-01-28T05:32:56;101837.59;;;-0.41;91.93
54270;BME280;40181;51.560;13.000;2023-01-28T05:35:25;101838.59;;;-0.29;92.21
54270;BME280;40181;51.560;13.000;2023-01-28T05:37:56;101845.69;;;-0.26;92.19
54270;BME280;40181;51.560;13.000;2023-01-28T05:40:25;101844.63;;;-0.28;91.97
54270;BME280;40181;51.560;13.000;2023-01-28T05:42:54;101852.63;;;-0.25;91.73
54270;BME280;40181;51.560;13.000;2023-01-28T05:45:23;101858.47;;;-0.28;91.10
54270;BME280;40181;51.560;13.000;2023-01-28T05:47:53;101859.97;;;-0.19;91.00
54270;BME280;40181;51.560;13.000;2023-01-28T05:50:22;101866.63;;;-0.33;90.86
54270;BME280;40181;51.560;13.000;2023-01-28T05:52:51;101856.00;;;-0.26;90.11
54270;BME280;40181;51.560;13.000;2023-01-28T05:55:23;101856.88;;;-0.25;90.38
54270;BME280;40181;51.560;13.000;2023-01-28T05:57:52;101859.66;;;-0.12;90.79
54270;BME280;40181;51.560;13.000;2023-01-28T06:00:21;101865.13;;;-0.19;90.65
54270;BME280;40181;51.560;13.000;2023-01-28T06:02:50;101870.00;;;-0.34;91.28
54270;BME280;40181;51.560;13.000;2023-01-28T06:05:19;101874.91;;;-0.15;91.01
54270;BME280;40181;51.560;13.000;2023-01-28T06:07:49;101872.69;;;-0.33;91.68
54270;BME280;40181;51.560;13.000;2023-01-28T06:10:18;101871.00;;;-0.32;91.45
54270;BME280;40181;51.560;13.000;2023-01-28T06:12:49;101868.63;;;-0.51;90.14
54270;BME280;40181;51.560;13.000;2023-01-28T06:15:18;101883.50;;;-0.26;87.44
54270;BME280;40181;51.560;13.000;2023-01-28T06:17:47;101873.03;;;-0.28;85.91
54270;BME280;40181;51.560;13.000;2023-01-28T06:20:16;101876.59;;;-0.38;86.91
54270;BME280;40181;51.560;13.000;2023-01-28T06:22:46;101883.69;;;-0.35;87.81
54270;BME280;40181;51.560;13.000;2023-01-28T06:25:18;101879.13;;;-0.28;87.98
54270;BME280;40181;51.560;13.000;2023-01-28T06:27:50;101891.91;;;-0.29;88.14
54270;BME280;40181;51.560;13.000;2023-01-28T06:30:19;101896.28;;;-0.28;88.32
54270;BME280;40181;51.560;13.000;2023-01-28T06:32:53;101881.75;;;-0.38;87.65
54270;BME280;40181;51.560;13.000;2023-01-28T06:35:22;101875.25;;;-0.33;87.26
54270;BME280;40181;51.560;13.000;2023-01-28T06:37:52;101881.56;;;-0.29;86.64
54270;BME280;40181;51.560;13.000;2023-01-28T06:40:21;101882.34;;;-0.30;86.44
54270;BME280;40181;51.560;13.000;2023-01-28T06:42:52;101885.94;;;-0.28;86.27
54270;BME280;40181;51.560;13.000;2023-01-28T06:45:21;101892.81;;;-0.29;86.53
54270;BME280;40181;51.560;13.000;2023-01-28T06:47:50;101891.81;;;-0.31;86.82
54270;BME280;40181;51.560;13.000;2023-01-28T06:50:19;101909.69;;;-0.22;87.10
54270;BME280;40181;51.560;13.000;2023-01-28T06:52:48;101903.66;;;-0.33;85.26
54270;BME280;40181;51.560;13.000;2023-01-28T06:55:17;101906.25;;;-0.33;84.70
54270;BME280;40181;51.560;13.000;2023-01-28T06:57:46;101906.56;;;-0.40;83.73
54270;BME280;40181;51.560;13.000;2023-01-28T07:00:19;101907.94;;;-0.33;80.54
54270;BME280;40181;51.560;13.000;2023-01-28T07:02:48;101902.22;;;-0.29;81.46
54270;BME280;40181;51.560;13.000;2023-01-28T07:05:17;101911.38;;;-0.22;83.60
54270;BME280;40181;51.560;13.000;2023-01-28T07:07:46;101912.56;;;-0.29;83.61
54270;BME280;40181;51.560;13.000;2023-01-28T07:10:16;101912.41;;;-0.20;83.00
54270;BME280;40181;51.560;13.000;2023-01-28T07:12:45;101899.00;;;-0.26;84.22
54270;BME280;40181;51.560;13.000;2023-01-28T07:15:14;101904.66;;;-0.20;83.53
54270;BME280;40181;51.560;13.000;2023-01-28T07:17:46;101908.75;;;-0.12;83.10
54270;BME280;40181;51.560;13.000;2023-01-28T07:20:17;101916.66;;;-0.21;83.48
54270;BME280;40181;51.560;13.000;2023-01-28T07:22:46;101905.53;;;-0.20;83.57
54270;BME280;40181;51.560;13.000;2023-01-28T07:25:15;101918.00;;;-0.26;81.53
54270;BME280;40181;51.560;13.000;2023-01-28T07:27:46;101904.53;;;-0.22;81.11
54270;BME280;40181;51.560;13.000;2023-01-28T07:30:19;101911.03;;;-0.27;80.54
54270;BME280;40181;51.560;13.000;2023-01-28T07:32:52;101902.13;;;-0.31;80.60
54270;BME280;40181;51.560;13.000;2023-01-28T07:35:21;101905.19;;;-0.24;81.30
54270;BME280;40181;51.560;13.000;2023-01-28T07:37:52;101907.25;;;-0.20;81.39
54270;BME280;40181;51.560;13.000;2023-01-28T07:40:21;101904.72;;;-0.31;81.60
54270;BME280;40181;51.560;13.000;2023-01-28T07:42:51;101901.16;;;-0.21;80.25
54270;BME280;40181;51.560;13.000;2023-01-28T07:45:24;101910.97;;;-0.17;80.30
54270;BME280;40181;51.560;13.000;2023-01-28T07:47:55;101904.59;;;-0.10;79.83
54270;BME280;40181;51.560;13.000;2023-01-28T07:50:26;101906.94;;;-0.13;79.41
54270;BME280;40181;51.560;13.000;2023-01-28T07:52:57;101912.31;;;-0.32;78.39
54270;BME280;40181;51.560;13.000;2023-01-28T07:55:26;101909.91;;;-0.19;78.90
54270;BME280;40181;51.560;13.000;2023-01-28T07:57:57;101920.16;;;-0.20;77.21
54270;BME280;40181;51.560;13.000;2023-01-28T08:00:31;101917.88;;;-0.05;77.63
54270;BME280;40181;51.560;13.000;2023-01-28T08:03:04;101921.47;;;-0.03;77.73
54270;BME280;40181;51.560;13.000;2023-01-28T08:05:37;101920.97;;;-0.09;78.12
54270;BME280;40181;51.560;13.000;2023-01-28T08:08:08;101919.25;;;0.02;77.48
54270;BME280;40181;51.560;13.000;2023-01-28T08:10:39;101927.00;;;0.02;78.21
54270;BME280;40181;51.560;13.000;2023-01-28T08:13:09;101927.06;;;-0.09;77.96
54270;BME280;40181;51.560;13.000;2023-01-28T08:15:42;101913.72;;;-0.03;77.19
54270;BME280;40181;51.560;13.000;2023-01-28T08:18:13;101918.03;;;-0.14;77.91
54270;BME280;40181;51.560;13.000;2023-01-28T08:20:43;101913.91;;;-0.12;77.03
54270;BME280;40181;51.560;13.000;2023-01-28T08:23:14;101914.00;;;-0.10;76.62
54270;BME280;40181;51.560;13.000;2023-01-28T08:25:44;101920.63;;;-0.14;76.18
54270;BME280;40181;51.560;13.000;2023-01-28T08:28:15;101930.91;;;-0.04;74.86
54270;BME280;40181;51.560;13.000;2023-01-28T08:30:47;101921.25;;;-0.06;74.81
54270;BME280;40181;51.560;13.000;2023-01-28T08:33:17;101921.84;;;0.02;75.22
54270;BME280;40181;51.560;13.000;2023-01-28T08:35:46;101926.47;;;0.06;75.62
54270;BME280;40181;51.560;13.000;2023-01-28T08:38:15;101920.63;;;0.08;75.35
54270;BME280;40181;51.560;13.000;2023-01-28T08:40:44;101923.75;;;0.04;76.91
54270;BME280;40181;51.560;13.000;2023-01-28T08:43:14;101922.19;;;0.06;76.04
54270;BME280;40181;51.560;13.000;2023-01-28T08:45:43;101922.84;;;0.04;76.19
54270;BME280;40181;51.560;13.000;2023-01-28T08:48:17;101928.56;;;-0.01;76.47
54270;BME280;40181;51.560;13.000;2023-01-28T08:50:46;101924.91;;;0.08;75.20
54270;BME280;40181;51.560;13.000;2023-01-28T08:53:17;101932.78;;;0.09;75.51
54270;BME280;40181;51.560;13.000;2023-01-28T08:55:47;101929.72;;;0.03;75.59
54270;BME280;40181;51.560;13.000;2023-01-28T08:58:17;101928.63;;;0.11;76.09
54270;BME280;40181;51.560;13.000;2023-01-28T09:00:49;101937.63;;;0.17;76.21
54270;BME280;40181;51.560;13.000;2023-01-28T09:03:18;101932.78;;;0.09;77.17
54270;BME280;40181;51.560;13.000;2023-01-28T09:05:48;101938.66;;;0.19;76.84
54270;BME280;40181;51.560;13.000;2023-01-28T09:08:17;101941.00;;;0.16;76.44
54270;BME280;40181;51.560;13.000;2023-01-28T09:10:46;101945.38;;;0.17;75.63
54270;BME280;40181;51.560;13.000;2023-01-28T09:13:15;101948.75;;;0.16;75.72
54270;BME280;40181;51.560;13.000;2023-01-28T09:15:44;101961.25;;;-0.01;75.83
54270;BME280;40181;51.560;13.000;2023-01-28T09:18:15;101945.03;;;0.12;75.73
54270;BME280;40181;51.560;13.000;2023-01-28T09:20:45;101960.16;;;0.07;75.77
54270;BME280;40181;51.560;13.000;2023-01-28T09:23:14;101954.69;;;0.15;76.20
54270;BME280;40181;51.560;13.000;2023-01-28T09:25:43;101946.72;;;0.11;74.64
54270;BME280;40181;51.560;13.000;2023-01-28T09:28:12;101951.09;;;0.12;73.95
54270;BME280;40181;51.560;13.000;2023-01-28T09:30:41;101955.63;;;0.15;75.03
54270;BME280;40181;51.560;13.000;2023-01-28T09:33:12;101953.09;;;0.05;74.72
54270;BME280;40181;51.560;13.000;2023-01-28T09:35:41;101957.59;;;0.07;75.69
54270;BME280;40181;51.560;13.000;2023-01-28T09:38:10;101969.97;;;0.11;75.71
54270;BME280;40181;51.560;13.000;2023-01-28T09:40:41;101970.16;;;0.25;74.96
54270;BME280;40181;51.560;13.000;2023-01-28T09:43:29;101981.97;;;0.11;76.26
54270;BME280;40181;51.560;13.000;2023-01-28T09:46:13;101983.06;;;0.25;75.50
54270;BME280;40181;51.560;13.000;2023-01-28T09:48:49;101981.69;;;-0.04;76.51
54270;BME280;40181;51.560;13.000;2023-01-28T09:51:29;101992.44;;;-0.10;77.08
54270;BME280;40181;51.560;13.000;2023-01-28T09:54:05;101989.19;;;-0.07;76.69
54270;BME280;40181;51.560;13.000;2023-01-28T09:56:43;101983.41;;;-0.15;76.13
54270;BME280;40181;51.560;13.000;2023-01-28T09:59:17;101993.25;;;-0.21;75.70
54270;BME280;40181;51.560;13.000;2023-01-28T10:01:53;101991.69;;;-0.19;74.34
54270;BME280;40181;51.560;13.000;2023-01-28T10:04:44;101994.88;;;-0.11;74.38
54270;BME280;40181;51.560;13.000;2023-01-28T10:07:27;101995.25;;;-0.07;73.93
54270;BME280;40181;51.560;13.000;2023-01-28T10:10:02;101990.03;;;0.04;74.56
54270;BME280;40181;51.560;13.000;2023-01-28T10:12:45;101995.38;;;-0.05;73.51
54270;BME280;40181;51.560;13.000;2023-01-28T10:15:46;101991.16;;;-0.15;73.40
54270;BME280;40181;51.560;13.000;2023-01-28T10:18:42;102000.97;;;-0.11;74.02
54270;BME280;40181;51.560;13.000;2023-01-28T10:21:21;101998.84;;;-0.27;73.96
54270;BME280;40181;51.560;13.000;2023-01-28T10:23:58;101996.63;;;-0.22;73.92
54270;BME280;40181;51.560;13.000;2023-01-28T10:26:34;102000.03;;;-0.11;74.13
54270;BME280;40181;51.560;13.000;2023-01-28T10:29:11;101992.19;;;-0.13;73.65
54270;BME280;40181;51.560;13.000;2023-01-28T10:31:49;102010.88;;;-0.05;74.42
54270;BME280;40181;51.560;13.000;2023-01-28T10:34:21;101994.88;;;-0.11;73.75
54270;BME280;40181;51.560;13.000;2023-01-28T10:36:53;101997.88;;;-0.17;71.74
54270;BME280;40181;51.560;13.000;2023-01-28T10:39:24;101995.59;;;-0.02;72.33
54270;BME280;40181;51.560;13.000;2023-01-28T10:41:54;101992.84;;;-0.16;72.31
54270;BME280;40181;51.560;13.000;2023-01-28T10:44:30;101981.88;;;-0.13;72.31
54270;BME280;40181;51.560;13.000;2023-01-28T10:47:05;101976.44;;;-0.16;70.89
54270;BME280;40181;51.560;13.000;2023-01-28T10:49:40;101984.41;;;-0.03;70.67
54270;BME280;40181;51.560;13.000;2023-01-28T10:52:14;101977.00;;;0.02;71.43
54270;BME280;40181;51.560;13.000;2023-01-28T10:54:43;101981.75;;;0.08;71.03
54270;BME280;40181;51.560;13.000;2023-01-28T10:57:15;101979.53;;;0.12;70.23
54270;BME280;40181;51.560;13.000;2023-01-28T10:59:45;101981.75;;;0.08;69.15
54270;BME280;40181;51.560;13.000;2023-01-28T11:02:25;101984.56;;;0.11;69.73
54270;BME280;40181;51.560;13.000;2023-01-28T11:05:02;101983.13;;;0.15;68.86
54270;BME280;40181;51.560;13.000;2023-01-28T11:07:35;101983.56;;;0.31;68.92
54270;BME280;40181;51.560;13.000;2023-01-28T11:10:24;101978.88;;;0.15;68.34
54270;BME280;40181;51.560;13.000;2023-01-28T11:12:57;101975.97;;;0.22;66.31
54270;BME280;40181;51.560;13.000;2023-01-28T11:15:27;101976.03;;;0.34;67.68
54270;BME280;40181;51.560;13.000;2023-01-28T11:17:59;101975.16;;;0.11;68.48
54270;BME280;40181;51.560;13.000;2023-01-28T11:20:37;101979.84;;;0.27;68.48
54270;BME280;40181;51.560;13.000;2023-01-28T11:23:21;101969.72;;;0.31;68.08
54270;BME280;40181;51.560;13.000;2023-01-28T11:25:59;101955.47;;;0.36;68.95
54270;BME280;40181;51.560;13.000;2023-01-28T11:28:32;101971.00;;;0.36;69.86
54270;BME280;40181;51.560;13.000;2023-01-28T11:31:03;101964.69;;;0.32;69.22
54270;BME280;40181;51.560;13.000;2023-01-28T11:33:36;101963.59;;;0.18;66.83
54270;BME280;40181;51.560;13.000;2023-01-28T11:36:11;101963.72;;;0.20;66.42
54270;BME280;40181;51.560;13.000;2023-01-28T11:38:56;101969.44;;;0.16;68.11
54270;BME280;40181;51.560;13.000;2023-01-28T11:41:28;101970.03;;;0.23;67.29
54270;BME280;40181;51.560;13.000;2023-01-28T11:44:00;101963.09;;;-0.10;67.16
54270;BME280;40181;51.560;13.000;2023-01-28T11:47:06;101960.88;;;0.17;67.34
54270;BME280;40181;51.560;13.000;2023-01-28T11:50:11;101951.09;;;0.35;68.45
54270;BME280;40181;51.560;13.000;2023-01-28T11:52:57;101951.97;;;0.35;68.07
54270;BME280;40181;51.560;13.000;2023-01-28T11:55:43;101956.41;;;0.36;67.53
54270;BME280;40181;51.560;13.000;2023-01-28T11:58:21;101956.69;;;0.29;67.51
54270;BME280;40181;51.560;13.000;2023-01-28T12:01:00;101955.56;;;0.25;67.86
54270;BME280;40181;51.560;13.000;2023-01-28T12:03:42;101963.41;;;0.27;67.41
54270;BME280;40181;51.560;13.000;2023-01-28T12:06:35;101951.63;;;0.08;68.02
54270;BME280;40181;51.560;13.000;2023-01-28T12:09:21;101940.28;;;0.06;68.10
54270;BME280;40181;51.560;13.000;2023-01-28T12:12:10;101942.84;;;0.29;67.67
54270;BME280;40181;51.560;13.000;2023-01-28T12:15:02;101949.94;;;0.31;68.63
54270;BME280;40181;51.560;13.000;2023-01-28T12:17:58;101949.72;;;0.28;67.24
54270;BME280;40181;51.560;13.000;2023-01-28T12:20:43;101945.28;;;-0.07;68.70
54270;BME280;40181;51.560;13.000;2023-01-28T12:23:38;101937.59;;;0.05;68.80
54270;BME280;40181;51.560;13.000;2023-01-28T12:26:17;101941.72;;;0.03;68.73
54270;BME280;40181;51.560;13.000;2023-01-28T12:29:00;101943.00;;;0.08;67.55
54270;BME280;40181;51.560;13.000;2023-01-28T12:31:51;101947.25;;;0.30;68.74
54270;BME280;40181;51.560;13.000;2023-01-28T12:35:00;101943.69;;;0.39;68.61
54270;BME280;40181;51.560;13.000;2023-01-28T12:38:07;101928.34;;;0.31;68.54
54270;BME280;40181;51.560;13.000;2023-01-28T12:40:48;101936.38;;;0.34;68.80
54270;BME280;40181;51.560;13.000;2023-01-28T12:43:32;101935.50;;;0.45;68.88
54270;BME280;40181;51.560;13.000;2023-01-28T12:46:17;101924.19;;;0.21;68.74
54270;BME280;40181;51.560;13.000;2023-01-28T12:48:59;101923.22;;;0.43;68.23
54270;BME280;40181;51.560;13.000;2023-01-28T12:51:37;101918.94;;;0.31;68.20
54270;BME280;40181;51.560;13.000;2023-01-28T12:54:17;101918.50;;;0.37;68.77
54270;BME280;40181;51.560;13.000;2023-01-28T12:56:51;101917.97;;;0.41;69.27
54270;BME280;40181;51.560;13.000;2023-01-28T12:59:26;101926.09;;;0.23;69.40
54270;BME280;40181;51.560;13.000;2023-01-28T13:02:11;101924.81;;;0.40;68.98
54270;BME280;40181;51.560;13.000;2023-01-28T13:04:52;101923.22;;;0.43;69.28
54270;BME280;40181;51.560;13.000;2023-01-28T13:07:26;101931.72;;;0.30;69.26
54270;BME280;40181;51.560;13.000;2023-01-28T13:10:04;101911.03;;;0.30;68.97
54270;BME280;40181;51.560;13.000;2023-01-28T13:12:39;101922.47;;;0.21;68.84
54270;BME280;40181;51.560;13.000;2023-01-28T13:15:11;101925.19;;;0.23;69.39
54270;BME280;40181;51.560;13.000;2023-01-28T13:17:56;101927.66;;;0.21;70.26
54270;BME280;40181;51.560;13.000;2023-01-28T13:20:34;101930.53;;;0.36;70.94
54270;BME280;40181;51.560;13.000;2023-01-28T13:23:21;101946.22;;;0.27;72.06
54270;BME280;40181;51.560;13.000;2023-01-28T13:25:53;101935.97;;;0.17;71.33